Time;durP1;ratioP1;P1;durP2;ratioP2;P2;SDS_P1;SDS_P2;PMS_P1;PMS_P2;Temp;Humidity;BMP_temperature;BMP_pressure;BME280_temperature;BME280_humidity;BME280_pressure;Samples;Min_cycle;Max_cycle;Signal;HPM_P1;HPM_P2
2022/08/08 00:00:10;;;;;;;9.60;3.00;;;27.80;99.90;;;;;;5026989;23;20033;-47
2022/08/08 00:03:04;;;;;;;8.55;3.00;;;27.70;99.90;;;;;;4973027;28;20081;-47
2022/08/08 00:05:53;;;;;;;5.03;2.80;;;27.70;99.90;;;;;;4963526;28;20470;-47
2022/08/08 00:08:41;;;;;;;4.82;3.22;;;27.70;99.90;;;;;;4978817;28;20109;-48
2022/08/08 00:11:15;;;;;;;4.45;2.70;;;27.70;99.90;;;;;;4978503;28;20037;-48
2022/08/08 00:14:13;;;;;;;3.42;2.55;;;27.70;99.90;;;;;;4974609;28;20481;-48
2022/08/08 00:17:12;;;;;;;4.07;2.50;;;27.70;99.90;;;;;;4991770;28;20387;-48
2022/08/08 00:19:57;;;;;;;5.95;3.03;;;27.70;99.90;;;;;;4991828;28;20026;-48
2022/08/08 00:22:47;;;;;;;5.53;2.60;;;27.70;99.90;;;;;;4991704;28;20037;-48
2022/08/08 00:25:18;;;;;;;3.95;2.67;;;27.60;99.90;;;;;;4991650;28;20052;-48
2022/08/08 00:27:46;;;;;;;2.63;2.42;;;27.60;99.90;;;;;;4991775;28;20023;-47
2022/08/08 00:30:13;;;;;;;4.55;2.53;;;27.60;99.90;;;;;;4991513;28;20030;-47
2022/08/08 00:32:42;;;;;;;3.13;2.28;;;27.70;99.90;;;;;;4991587;28;20022;-48
2022/08/08 00:35:33;;;;;;;5.45;2.55;;;27.60;99.90;;;;;;4991831;28;20034;-48
2022/08/08 00:38:01;;;;;;;3.03;2.30;;;27.60;99.90;;;;;;4987785;28;20400;-47
2022/08/08 00:40:27;;;;;;;4.32;2.45;;;27.60;99.90;;;;;;4982489;28;20061;-47
2022/08/08 00:43:21;;;;;;;6.97;2.65;;;27.60;99.90;;;;;;4991419;28;20132;-47
2022/08/08 00:46:16;;;;;;;9.23;3.30;;;27.60;99.90;;;;;;4991441;28;20157;-47
2022/08/08 00:49:00;;;;;;;9.38;3.45;;;27.60;99.90;;;;;;4961095;28;20038;-47
2022/08/08 00:51:49;;;;;;;7.30;3.40;;;27.60;99.90;;;;;;4991619;28;20054;-48
2022/08/08 00:54:41;;;;;;;10.27;3.83;;;27.60;99.90;;;;;;4983602;28;20068;-47
2022/08/08 00:57:45;;;;;;;11.82;4.28;;;27.60;99.90;;;;;;4991520;28;20029;-47
2022/08/08 01:00:18;;;;;;;8.57;3.80;;;27.60;99.90;;;;;;5003043;23;20046;-50
2022/08/08 01:03:20;;;;;;;12.45;4.30;;;27.60;99.90;;;;;;5009050;28;20406;-50
2022/08/08 01:06:10;;;;;;;8.82;3.80;;;27.60;99.90;;;;;;5011203;28;20022;-50
2022/08/08 01:08:42;;;;;;;14.05;4.78;;;27.60;99.90;;;;;;4989002;28;20029;-50
2022/08/08 01:11:20;;;;;;;8.02;3.80;;;27.60;99.90;;;;;;4979799;28;20128;-50
2022/08/08 01:14:16;;;;;;;11.10;3.97;;;27.60;99.90;;;;;;5010964;28;20152;-50
2022/08/08 01:17:09;;;;;;;9.77;4.43;;;27.60;99.90;;;;;;4980417;28;20117;-50
2022/08/08 01:19:43;;;;;;;14.68;4.65;;;27.60;99.90;;;;;;5010876;28;20038;-50
2022/08/08 01:22:21;;;;;;;11.52;4.97;;;27.60;99.90;;;;;;4983734;28;20483;-50
2022/08/08 01:25:00;;;;;;;9.52;4.75;;;27.60;99.90;;;;;;5014593;28;20028;-50
2022/08/08 01:27:41;;;;;;;11.35;4.68;;;27.60;99.90;;;;;;5014711;28;20018;-50
2022/08/08 01:30:45;;;;;;;13.63;4.72;;;27.50;99.90;;;;;;5014919;28;20486;-50
2022/08/08 01:33:41;;;;;;;11.98;3.92;;;27.60;99.90;;;;;;5015093;28;20026;-49
2022/08/08 01:36:44;;;;;;;12.63;4.40;;;27.60;99.90;;;;;;5014717;28;20057;-50
2022/08/08 01:39:31;;;;;;;8.50;4.03;;;27.50;99.90;;;;;;5014436;28;20036;-50
2022/08/08 01:42:15;;;;;;;10.23;4.57;;;27.60;99.90;;;;;;4974428;28;20386;-50
2022/08/08 01:45:27;;;;;;;13.95;4.97;;;27.50;99.90;;;;;;5014548;28;20400;-50
2022/08/08 01:48:22;;;;;;;14.38;6.15;;;27.50;99.90;;;;;;4978559;28;20042;-50
2022/08/08 01:51:27;;;;;;;16.60;5.00;;;27.50;99.90;;;;;;4989525;28;20030;-50
2022/08/08 01:54:22;;;;;;;12.70;5.30;;;27.50;99.90;;;;;;5013990;28;20105;-50
2022/08/08 01:57:06;;;;;;;28.52;7.38;;;27.50;99.90;;;;;;5014211;28;20057;-49
2022/08/08 01:59:42;;;;;;;15.20;6.18;;;27.50;99.90;;;;;;4986126;28;20033;-50
2022/08/08 02:02:21;;;;;;;21.83;6.13;;;27.50;99.90;;;;;;5014152;28;20409;-50
2022/08/08 02:05:08;;;;;;;17.33;6.15;;;27.50;99.90;;;;;;4983863;28;20041;-49
2022/08/08 02:08:06;;;;;;;14.75;6.03;;;27.50;99.90;;;;;;5014013;28;20022;-49
2022/08/08 02:11:12;;;;;;;13.00;5.43;;;27.50;99.90;;;;;;4986540;28;20023;-49
2022/08/08 02:13:53;;;;;;;13.20;5.57;;;27.50;99.90;;;;;;5002757;28;20113;-50
2022/08/08 02:16:40;;;;;;;13.35;5.85;;;27.40;99.90;;;;;;5013580;28;20034;-50
2022/08/08 02:19:09;;;;;;;;;;;27.40;99.90;;;;;;5014249;28;20029;-50
2022/08/08 02:24:52;;;;;;;17.88;5.63;;;27.40;99.90;;;;;;5013587;28;20045;-50
2022/08/08 02:27:28;;;;;;;17.42;6.68;;;27.40;99.90;;;;;;5009915;28;20018;-50
2022/08/08 02:30:01;;;;;;;16.30;5.97;;;27.40;99.90;;;;;;5005006;28;20022;-50
2022/08/08 02:33:05;;;;;;;16.30;5.97;;;27.40;99.90;;;;;;5013137;28;20080;-50
2022/08/08 02:35:34;;;;;;;17.58;6.10;;;27.40;99.90;;;;;;5013411;28;20025;-51
2022/08/08 02:38:21;;;;;;;14.88;6.13;;;27.40;99.90;;;;;;5013287;28;20026;-51
2022/08/08 02:41:14;;;;;;;15.18;5.13;;;27.40;99.90;;;;;;5013506;28;20041;-50
2022/08/08 02:44:00;;;;;;;17.65;6.40;;;27.40;99.90;;;;;;4987531;28;20120;-51
2022/08/08 02:46:42;;;;;;;12.55;5.85;;;27.40;99.90;;;;;;4972927;28;20049;-50
2022/08/08 02:49:25;;;;;;;16.83;5.95;;;27.40;99.90;;;;;;5013268;28;20022;-51
2022/08/08 02:51:57;;;;;;;15.60;6.63;;;27.40;99.90;;;;;;5013118;28;20109;-51
2022/08/08 02:55:19;;;;;;;15.38;5.63;;;27.40;99.90;;;;;;5012871;28;20102;-51
2022/08/08 02:58:09;;;;;;;16.80;5.95;;;27.40;99.90;;;;;;4933340;29;20563;-50
2022/08/08 03:01:07;;;;;;;10.70;5.10;;;27.30;99.90;;;;;;4974115;22;20058;-56
2022/08/08 03:04:05;;;;;;;17.80;5.35;;;27.30;99.90;;;;;;5012909;28;20491;-56
2022/08/08 03:06:49;;;;;;;12.93;5.13;;;27.30;99.90;;;;;;5012927;28;20060;-56
2022/08/08 03:09:46;;;;;;;15.68;5.60;;;27.30;99.90;;;;;;5011612;28;20076;-56
2022/08/08 03:12:45;;;;;;;15.88;5.10;;;27.30;99.90;;;;;;4988225;28;20026;-55
2022/08/08 03:15:23;;;;;;;15.32;4.63;;;27.30;99.90;;;;;;4988304;28;20577;-56
2022/08/08 03:17:54;;;;;;;;;;;27.30;99.90;;;;;;5013329;28;20360;-57
2022/08/08 03:20:20;;;;;;;12.95;5.30;;;27.30;99.90;;;;;;5012500;28;19905;-57
2022/08/08 03:22:51;;;;;;;12.77;3.90;;;27.30;99.90;;;;;;5012749;28;20042;-57
2022/08/08 03:25:19;;;;;;;11.20;4.82;;;27.30;99.90;;;;;;5012613;28;20030;-58
2022/08/08 03:27:53;;;;;;;6.60;3.42;;;27.30;99.90;;;;;;5012762;28;20382;-57
2022/08/08 03:30:19;;;;;;;7.85;3.85;;;27.20;99.90;;;;;;5012536;28;20445;-56
2022/08/08 03:35:30;;;;;;;8.82;3.38;;;27.20;99.90;;;;;;5000188;28;20033;-56
2022/08/08 03:38:00;;;;;;;8.38;3.58;;;27.10;99.90;;;;;;5011039;28;20029;-56
2022/08/08 03:40:25;;;;;;;10.05;3.47;;;27.10;99.90;;;;;;4994694;28;20088;-56
2022/08/08 03:42:51;;;;;;;8.35;3.15;;;27.10;99.90;;;;;;4994610;28;20037;-56
2022/08/08 03:45:20;;;;;;;8.77;3.55;;;27.10;99.90;;;;;;5012004;28;20018;-56
2022/08/08 03:47:58;;;;;;;5.18;3.20;;;27.00;99.90;;;;;;5012348;28;20096;-57
2022/08/08 03:50:25;;;;;;;5.93;3.50;;;27.10;99.90;;;;;;4994496;28;20018;-57
2022/08/08 03:52:52;;;;;;;7.55;3.45;;;27.00;99.90;;;;;;4994576;28;20385;-56
2022/08/08 03:55:21;;;;;;;4.82;3.13;;;27.00;99.90;;;;;;5012394;28;20114;-56
2022/08/08 03:57:51;;;;;;;8.02;4.05;;;27.00;99.90;;;;;;5012190;28;20087;-56
2022/08/08 04:00:20;;;;;;;5.50;3.92;;;27.00;99.90;;;;;;5012504;28;20050;-56
2022/08/08 04:03:06;;;;;;;4.53;3.28;;;27.00;99.90;;;;;;5011987;28;20037;-55
2022/08/08 04:05:34;;;;;;;7.28;3.75;;;27.00;99.90;;;;;;5011813;28;20501;-56
2022/08/08 04:08:02;;;;;;;4.72;3.47;;;27.00;99.90;;;;;;5011672;28;20108;-56
2022/08/08 04:10:30;;;;;;;6.70;3.83;;;27.00;99.90;;;;;;5001133;28;20026;-56
2022/08/08 04:12:56;;;;;;;5.00;3.38;;;27.00;99.90;;;;;;5008196;28;20049;-56
2022/08/08 04:15:23;;;;;;;9.77;3.38;;;27.00;99.90;;;;;;4999371;28;20014;-56
2022/08/08 04:17:49;;;;;;;8.23;3.40;;;27.00;99.90;;;;;;4994081;28;20382;-56
2022/08/08 04:20:16;;;;;;;6.07;3.53;;;26.90;99.90;;;;;;5011452;28;20030;-56
2022/08/08 04:22:41;;;;;;;8.52;3.88;;;27.00;99.90;;;;;;5011542;28;20042;-56
2022/08/08 04:25:08;;;;;;;7.60;3.40;;;27.00;99.90;;;;;;5011408;28;20052;-56
2022/08/08 04:27:35;;;;;;;10.38;3.85;;;27.00;99.90;;;;;;5011434;28;20018;-56
2022/08/08 04:30:03;;;;;;;4.75;3.50;;;27.00;99.90;;;;;;5011520;28;20026;-56
2022/08/08 04:32:29;;;;;;;6.72;3.30;;;26.90;99.90;;;;;;5011216;28;20085;-56
2022/08/08 04:34:55;;;;;;;11.65;3.92;;;26.90;99.90;;;;;;4993846;28;20072;-55
2022/08/08 04:37:20;;;;;;;7.28;2.90;;;27.00;99.90;;;;;;4994211;28;20030;-55
2022/08/08 04:39:46;;;;;;;8.45;3.55;;;27.00;99.90;;;;;;5011097;28;20037;-54
2022/08/08 04:42:12;;;;;;;6.25;3.30;;;27.00;99.90;;;;;;5011186;28;20056;-55
2022/08/08 04:44:38;;;;;;;6.93;4.00;;;27.00;99.90;;;;;;5011293;28;20022;-55
2022/08/08 04:47:04;;;;;;;10.70;3.40;;;27.00;99.90;;;;;;5011060;28;20025;-56
2022/08/08 04:49:30;;;;;;;5.68;3.13;;;27.00;99.90;;;;;;5011371;28;20017;-55
2022/08/08 04:51:56;;;;;;;6.00;2.95;;;26.90;99.90;;;;;;5010579;28;20080;-54
2022/08/08 04:54:21;;;;;;;3.67;2.85;;;27.00;99.90;;;;;;4998102;28;20052;-55
2022/08/08 04:56:47;;;;;;;11.05;3.63;;;27.00;99.90;;;;;;5012229;28;20072;-56
2022/08/08 04:59:13;;;;;;;6.20;3.50;;;26.90;99.90;;;;;;5015026;28;20022;-55
2022/08/08 05:01:39;;;;;;;12.20;3.80;;;26.90;99.90;;;;;;5014960;28;20049;-56
2022/08/08 05:04:04;;;;;;;6.55;3.28;;;26.90;99.90;;;;;;5014999;28;20402;-56
2022/08/08 05:06:30;;;;;;;13.55;4.00;;;26.90;99.90;;;;;;5015103;28;20021;-55
2022/08/08 05:08:56;;;;;;;11.98;4.60;;;27.00;99.90;;;;;;5014826;28;20080;-54
2022/08/08 05:11:22;;;;;;;13.80;4.38;;;27.00;99.90;;;;;;5001488;28;20049;-54
2022/08/08 05:13:48;;;;;;;8.23;4.05;;;26.90;99.90;;;;;;5014933;28;20032;-54
2022/08/08 05:16:13;;;;;;;11.00;4.18;;;27.00;99.90;;;;;;5014595;28;20033;-54
2022/08/08 05:18:39;;;;;;;16.00;5.47;;;27.00;99.90;;;;;;5014912;28;20022;-54
2022/08/08 05:21:09;;;;;;;15.55;5.10;;;27.00;99.90;;;;;;5014971;28;20018;-55
2022/08/08 05:23:35;;;;;;;11.48;5.43;;;27.00;99.90;;;;;;5014460;28;20041;-54
2022/08/08 05:26:02;;;;;;;10.50;3.85;;;27.00;99.90;;;;;;5014700;28;20022;-56
2022/08/08 05:28:28;;;;;;;10.93;4.18;;;27.00;99.90;;;;;;5014814;28;20030;-54
2022/08/08 05:30:54;;;;;;;12.20;4.40;;;27.00;99.90;;;;;;5014581;28;20022;-55
2022/08/08 05:33:19;;;;;;;10.40;3.78;;;27.00;99.90;;;;;;5014652;28;20038;-54
2022/08/08 05:35:46;;;;;;;6.75;3.88;;;27.00;99.90;;;;;;5012586;28;20033;-55
2022/08/08 05:38:17;;;;;;;13.23;4.37;;;27.00;99.90;;;;;;5000982;28;20033;-54
2022/08/08 05:40:46;;;;;;;17.45;4.55;;;26.90;99.90;;;;;;5014412;28;20026;-56
2022/08/08 05:43:22;;;;;;;14.02;5.55;;;26.90;99.90;;;;;;5014245;28;20038;-55
2022/08/08 05:45:48;;;;;;;17.50;5.05;;;26.90;99.90;;;;;;5014305;28;20053;-57
2022/08/08 05:48:15;;;;;;;10.80;6.18;;;26.90;99.90;;;;;;4996576;28;20497;-57
2022/08/08 05:50:41;;;;;;;16.55;5.88;;;27.00;99.90;;;;;;5014337;28;20490;-56
2022/08/08 05:53:06;;;;;;;16.27;6.93;;;27.00;99.90;;;;;;5014117;28;20057;-56
2022/08/08 05:55:35;;;;;;;13.70;6.45;;;27.00;99.90;;;;;;5014168;28;20014;-54
2022/08/08 05:58:03;;;;;;;29.17;6.63;;;27.00;99.90;;;;;;5014167;28;20410;-55
2022/08/08 06:00:32;;;;;;;12.90;7.28;;;27.00;99.90;;;;;;5013723;28;20048;-54
2022/08/08 06:03:12;;;;;;;13.60;6.72;;;27.00;99.90;;;;;;5014078;28;20041;-55
2022/08/08 06:05:54;;;;;;;17.15;6.70;;;27.00;99.90;;;;;;4996051;28;20037;-55
2022/08/08 06:08:23;;;;;;;13.73;7.00;;;27.00;99.90;;;;;;5013188;28;20051;-54
2022/08/08 06:10:50;;;;;;;16.63;6.57;;;27.00;99.90;;;;;;5000087;28;20480;-54
2022/08/08 06:13:17;;;;;;;17.02;7.07;;;27.00;99.90;;;;;;5000301;28;20033;-54
2022/08/08 06:15:47;;;;;;;17.58;7.45;;;27.00;99.90;;;;;;5013645;28;20026;-54
2022/08/08 06:18:14;;;;;;;15.18;7.40;;;27.00;99.90;;;;;;5013574;28;20189;-55
2022/08/08 06:20:41;;;;;;;15.93;6.88;;;27.00;99.90;;;;;;5013765;28;20030;-54
2022/08/08 06:23:07;;;;;;;16.13;7.70;;;27.00;99.90;;;;;;5013381;28;20076;-55
2022/08/08 06:25:35;;;;;;;13.43;6.65;;;27.00;99.90;;;;;;5013673;28;20426;-55
2022/08/08 06:28:12;;;;;;;15.00;7.32;;;27.00;99.90;;;;;;5013687;28;20026;-56
2022/08/08 06:30:42;;;;;;;16.25;6.97;;;27.00;99.90;;;;;;5009319;28;20401;-56
2022/08/08 06:33:10;;;;;;;14.90;6.43;;;27.00;99.90;;;;;;5004220;28;20452;-57
2022/08/08 06:35:46;;;;;;;11.45;6.82;;;27.00;99.90;;;;;;5013261;28;20010;-55
2022/08/08 06:38:18;;;;;;;13.55;6.68;;;27.00;99.90;;;;;;5013273;28;20025;-54
2022/08/08 06:40:47;;;;;;;12.70;6.45;;;26.90;99.90;;;;;;5013457;28;20022;-56
2022/08/08 06:43:17;;;;;;;18.70;8.00;;;26.90;99.90;;;;;;5013156;28;20034;-55
2022/08/08 06:45:43;;;;;;;19.75;7.32;;;26.90;99.90;;;;;;5012888;28;20490;-56
2022/08/08 06:48:09;;;;;;;20.98;7.90;;;26.90;99.90;;;;;;5012895;28;20485;-55
2022/08/08 06:50:35;;;;;;;19.45;7.93;;;26.90;99.90;;;;;;5013023;28;20034;-56
2022/08/08 06:53:02;;;;;;;11.93;7.55;;;26.90;99.90;;;;;;5012961;28;20029;-55
2022/08/08 06:55:30;;;;;;;19.95;8.38;;;26.90;99.90;;;;;;5013015;28;20022;-55
2022/08/08 06:57:56;;;;;;;22.75;9.38;;;26.90;99.90;;;;;;5012758;28;20429;-55
2022/08/08 07:00:22;;;;;;;11.65;7.40;;;26.90;99.90;;;;;;5012308;28;20053;-55
2022/08/08 07:02:52;;;;;;;14.82;6.90;;;26.90;99.90;;;;;;5012769;28;20037;-55
2022/08/08 07:05:22;;;;;;;16.10;7.18;;;26.90;99.90;;;;;;5012796;28;20026;-55
2022/08/08 07:07:50;;;;;;;17.15;6.47;;;26.90;99.90;;;;;;5012731;28;20448;-56
2022/08/08 07:10:19;;;;;;;16.02;6.28;;;26.90;99.90;;;;;;5003377;28;20080;-54
2022/08/08 07:12:51;;;;;;;15.88;7.75;;;26.90;99.90;;;;;;5008705;28;20029;-55
2022/08/08 07:15:26;;;;;;;20.30;7.20;;;26.90;99.90;;;;;;5005121;28;20057;-55
2022/08/08 07:17:58;;;;;;;17.08;6.85;;;26.90;99.90;;;;;;5007494;28;20021;-55
2022/08/08 07:20:29;;;;;;;14.10;6.78;;;26.90;99.90;;;;;;5011830;28;20737;-55
2022/08/08 07:23:20;;;;;;;17.75;7.90;;;26.90;99.90;;;;;;5012209;28;20034;-55
2022/08/08 07:25:50;;;;;;;15.88;7.20;;;26.90;99.90;;;;;;4967757;28;20101;-56
2022/08/08 07:28:21;;;;;;;18.83;7.30;;;27.00;99.90;;;;;;4994580;28;20072;-55
2022/08/08 07:30:47;;;;;;;20.60;7.63;;;27.00;99.90;;;;;;5011952;28;20466;-54
2022/08/08 07:33:15;;;;;;;17.77;8.20;;;27.00;99.90;;;;;;5012300;28;20534;-55
2022/08/08 07:35:43;;;;;;;16.50;6.28;;;27.00;99.90;;;;;;5012187;28;20026;-56
2022/08/08 07:38:10;;;;;;;16.33;6.65;;;27.00;99.90;;;;;;5012054;28;20025;-55
2022/08/08 07:40:36;;;;;;;16.75;7.28;;;26.90;99.90;;;;;;5011976;28;20029;-55
2022/08/08 07:43:04;;;;;;;22.88;7.57;;;26.90;99.90;;;;;;5011979;28;20030;-56
2022/08/08 07:45:30;;;;;;;21.05;7.03;;;27.00;99.90;;;;;;5011873;28;20388;-54
2022/08/08 07:47:57;;;;;;;19.33;7.35;;;27.00;99.90;;;;;;5011833;28;20037;-55
2022/08/08 07:50:24;;;;;;;28.00;7.85;;;27.00;99.90;;;;;;5011941;28;20037;-55
2022/08/08 07:52:54;;;;;;;13.82;6.20;;;27.10;99.90;;;;;;5011917;28;20060;-55
2022/08/08 07:55:25;;;;;;;22.65;8.70;;;27.10;99.90;;;;;;4994030;28;20022;-56
2022/08/08 07:57:57;;;;;;;19.30;6.20;;;27.10;99.90;;;;;;5011764;28;20030;-56
2022/08/08 08:00:29;;;;;;;16.25;7.72;;;27.10;99.90;;;;;;5011408;28;20053;-55
2022/08/08 08:03:05;;;;;;;23.55;7.18;;;27.10;99.90;;;;;;5011672;28;20478;-56
2022/08/08 08:05:42;;;;;;;16.55;6.70;;;27.20;99.90;;;;;;5011768;28;20033;-55
2022/08/08 08:08:19;;;;;;;20.77;8.60;;;27.20;99.90;;;;;;5011544;28;20486;-56
2022/08/08 08:10:48;;;;;;;;;;;27.20;99.90;;;;;;4999023;28;20030;-55
2022/08/08 08:13:27;;;;;;;14.85;6.38;;;27.30;99.90;;;;;;5011388;28;19905;-56
2022/08/08 08:15:57;;;;;;;21.65;7.15;;;27.30;99.90;;;;;;5011243;28;20033;-55
2022/08/08 08:18:23;;;;;;;20.50;7.95;;;27.30;99.90;;;;;;5011490;28;20053;-56
2022/08/08 08:20:52;;;;;;;17.95;6.85;;;27.30;99.90;;;;;;5011373;28;20108;-56
2022/08/08 08:23:18;;;;;;;15.93;6.18;;;27.30;99.90;;;;;;5011219;28;20066;-56
2022/08/08 08:25:43;;;;;;;19.00;6.20;;;27.30;99.90;;;;;;5011448;28;20034;-56
2022/08/08 08:28:09;;;;;;;19.85;7.32;;;27.30;99.90;;;;;;5011278;28;20022;-55
2022/08/08 08:30:37;;;;;;;15.15;6.80;;;27.30;99.90;;;;;;5007195;28;20042;-55
2022/08/08 08:33:02;;;;;;;;;;;27.30;99.90;;;;;;5002438;28;20026;-56
2022/08/08 08:35:28;;;;;;;15.02;6.95;;;27.40;99.90;;;;;;5011151;28;20446;-55
2022/08/08 08:37:54;;;;;;;14.00;6.93;;;27.40;99.90;;;;;;5010996;28;20030;-56
2022/08/08 08:40:20;;;;;;;15.43;6.45;;;27.40;99.90;;;;;;5011279;28;20401;-55
2022/08/08 08:42:48;;;;;;;13.68;6.00;;;27.50;99.90;;;;;;4997302;28;20034;-55
2022/08/08 08:45:15;;;;;;;15.77;6.63;;;27.50;99.90;;;;;;5011051;28;20025;-56
2022/08/08 08:47:43;;;;;;;21.00;7.07;;;27.50;99.90;;;;;;5011065;28;20021;-55
2022/08/08 08:50:09;;;;;;;21.83;6.63;;;27.50;99.90;;;;;;5011272;28;20030;-57
2022/08/08 08:52:40;;;;;;;12.85;5.80;;;27.50;99.90;;;;;;5011223;28;20076;-55
2022/08/08 08:55:11;;;;;;;15.35;6.68;;;27.50;99.90;;;;;;5005962;28;20078;-57
2022/08/08 08:57:38;;;;;;;18.08;7.10;;;27.60;99.90;;;;;;5001794;28;20561;-56
2022/08/08 09:00:04;;;;;;;16.65;6.88;;;27.60;99.90;;;;;;4993207;28;20060;-57
2022/08/08 09:02:34;;;;;;;17.17;6.45;;;27.60;99.90;;;;;;5010939;28;20456;-56
2022/08/08 09:05:03;;;;;;;11.70;6.57;;;27.60;99.90;;;;;;5011058;28;20026;-56
2022/08/08 09:07:33;;;;;;;15.02;6.50;;;27.60;99.90;;;;;;5010812;28;20114;-56
2022/08/08 09:09:59;;;;;;;13.98;6.35;;;27.70;99.90;;;;;;5003888;28;20031;-55
2022/08/08 09:12:26;;;;;;;15.05;6.05;;;27.70;99.90;;;;;;4991429;28;20030;-56
2022/08/08 09:14:56;;;;;;;14.88;6.13;;;27.70;99.90;;;;;;5008170;28;20086;-56
2022/08/08 09:17:24;;;;;;;17.65;6.15;;;27.80;99.90;;;;;;5010821;28;20018;-56
2022/08/08 09:19:55;;;;;;;17.40;6.25;;;27.80;99.90;;;;;;5010586;28;20066;-57
2022/08/08 09:22:22;;;;;;;17.63;6.70;;;27.90;99.90;;;;;;5010609;28;20018;-57
2022/08/08 09:24:49;;;;;;;15.15;6.15;;;27.90;99.90;;;;;;5010603;28;20056;-57
2022/08/08 09:27:16;;;;;;;12.50;6.22;;;27.90;99.90;;;;;;5010657;28;20113;-57
2022/08/08 09:30:00;;;;;;;;;;;27.90;99.90;;;;;;5011017;28;20041;-55
2022/08/08 09:32:37;;;;;;;24.45;8.18;;;27.90;99.90;;;;;;5010392;28;20258;-57
2022/08/08 09:35:27;;;;;;;22.23;7.00;;;28.00;99.90;;;;;;5010777;28;20033;-57
2022/08/08 09:37:56;;;;;;;11.63;5.70;;;28.00;99.90;;;;;;5010653;28;20489;-57
2022/08/08 09:40:23;;;;;;;24.65;7.32;;;28.00;99.90;;;;;;5010636;28;20083;-56
2022/08/08 09:42:58;;;;;;;14.65;6.25;;;28.00;99.90;;;;;;5011469;28;20022;-58
2022/08/08 09:45:40;;;;;;;16.70;5.97;;;28.00;99.90;;;;;;5014027;28;20065;-56
2022/08/08 09:48:08;;;;;;;13.90;5.60;;;28.10;99.90;;;;;;5014304;28;20041;-56
2022/08/08 09:50:34;;;;;;;16.73;5.88;;;28.10;99.90;;;;;;5014130;28;20052;-56
2022/08/08 09:53:02;;;;;;;21.05;6.47;;;28.10;99.90;;;;;;4996379;28;20458;-57
2022/08/08 09:55:31;;;;;;;15.70;6.32;;;28.10;99.90;;;;;;5014043;28;20110;-56
2022/08/08 09:58:05;;;;;;;18.95;6.82;;;28.10;99.90;;;;;;5014247;28;20038;-56
2022/08/08 10:00:35;;;;;;;17.42;5.93;;;28.10;99.90;;;;;;5013714;28;20048;-57
2022/08/08 10:03:03;;;;;;;13.45;6.28;;;28.10;99.90;;;;;;5013685;28;20320;-56
2022/08/08 10:05:34;;;;;;;15.73;7.40;;;28.10;99.90;;;;;;5014028;28;20087;-56
2022/08/08 10:08:00;;;;;;;15.80;5.68;;;28.20;99.90;;;;;;4995961;28;20049;-56
2022/08/08 10:10:28;;;;;;;19.40;6.47;;;28.30;99.90;;;;;;5003223;28;20023;-56
2022/08/08 10:12:54;;;;;;;15.02;5.60;;;28.30;99.90;;;;;;5009904;28;20022;-56
2022/08/08 10:15:27;;;;;;;14.60;6.07;;;28.30;99.90;;;;;;5013481;28;20105;-56
2022/08/08 10:17:54;;;;;;;13.15;5.65;;;28.30;99.90;;;;;;5013647;28;20038;-56
2022/08/08 10:20:22;;;;;;;20.30;6.70;;;28.30;99.90;;;;;;5013493;28;20359;-56
2022/08/08 10:22:59;;;;;;;15.60;6.20;;;28.40;99.90;;;;;;5013414;28;20037;-56
2022/08/08 10:25:26;;;;;;;14.50;5.35;;;28.40;99.90;;;;;;4996114;28;20029;-55
2022/08/08 10:27:53;;;;;;;10.98;5.50;;;28.40;99.90;;;;;;5013262;28;20029;-56
2022/08/08 10:30:21;;;;;;;24.00;6.18;;;28.40;99.90;;;;;;5013389;28;20112;-56
2022/08/08 10:32:55;;;;;;;16.85;6.30;;;28.40;99.90;;;;;;5013475;28;20025;-56
2022/08/08 10:35:26;;;;;;;16.52;5.97;;;28.40;99.90;;;;;;5013317;28;20661;-56
2022/08/08 10:38:00;;;;;;;13.85;5.43;;;28.40;99.90;;;;;;5012982;28;20033;-56
2022/08/08 10:40:28;;;;;;;13.65;6.28;;;28.40;99.90;;;;;;5013269;28;20037;-56
2022/08/08 10:43:00;;;;;;;14.48;5.65;;;28.50;99.90;;;;;;5013133;28;20038;-55
2022/08/08 10:45:26;;;;;;;12.38;5.82;;;28.50;99.90;;;;;;4986190;28;20029;-55
2022/08/08 10:47:57;;;;;;;22.63;8.13;;;28.40;99.90;;;;;;5012810;28;20033;-54
2022/08/08 10:50:35;;;;;;;14.07;5.97;;;28.50;99.90;;;;;;5012807;28;20119;-55
2022/08/08 10:53:06;;;;;;;12.50;6.00;;;28.50;99.90;;;;;;5012690;28;20076;-56
2022/08/08 10:55:33;;;;;;;14.50;5.82;;;28.50;99.90;;;;;;5011572;28;20076;-56
2022/08/08 10:58:02;;;;;;;18.52;6.28;;;28.50;99.90;;;;;;5012906;28;20516;-56
2022/08/08 11:00:28;;;;;;;13.38;6.63;;;28.50;99.90;;;;;;5012407;28;20062;-55
2022/08/08 11:02:56;;;;;;;16.60;7.13;;;28.50;99.90;;;;;;5012793;28;20116;-56
2022/08/08 11:05:22;;;;;;;13.88;6.53;;;28.50;99.90;;;;;;5012637;28;20481;-55
2022/08/08 11:07:53;;;;;;;19.92;7.55;;;28.50;99.90;;;;;;5012685;28;20172;-55
2022/08/08 11:10:23;;;;;;;18.30;7.20;;;28.50;99.90;;;;;;5003353;28;20035;-55
2022/08/08 11:12:51;;;;;;;21.05;10.70;;;28.60;99.90;;;;;;4990129;28;20430;-55
2022/08/08 11:15:20;;;;;;;14.25;6.80;;;28.60;99.90;;;;;;5012707;28;20522;-55
2022/08/08 11:17:47;;;;;;;28.60;17.33;;;28.50;99.90;;;;;;5012606;28;20417;-55
2022/08/08 11:20:20;;;;;;;14.70;7.37;;;28.50;99.90;;;;;;5012488;28;20104;-55
2022/08/08 11:22:52;;;;;;;14.30;6.72;;;28.50;99.90;;;;;;5012718;28;20034;-55
2022/08/08 11:25:22;;;;;;;17.88;6.18;;;28.50;99.90;;;;;;5012319;28;20032;-55
2022/08/08 11:27:52;;;;;;;17.77;9.95;;;28.40;99.90;;;;;;5012356;28;20065;-55
2022/08/08 11:30:20;;;;;;;12.02;6.13;;;28.40;99.90;;;;;;4995567;28;20069;-55
2022/08/08 11:32:50;;;;;;;10.75;6.05;;;28.40;99.90;;;;;;5012196;28;20383;-55
2022/08/08 11:35:17;;;;;;;13.02;5.78;;;28.40;99.90;;;;;;5012296;28;20034;-55
2022/08/08 11:37:42;;;;;;;16.08;5.25;;;28.40;99.90;;;;;;5012124;28;20021;-56
2022/08/08 11:40:10;;;;;;;14.52;6.03;;;28.40;99.90;;;;;;5011989;28;20484;-55
2022/08/08 11:42:37;;;;;;;10.05;5.40;;;28.50;99.90;;;;;;5011908;28;20022;-54
2022/08/08 11:45:05;;;;;;;13.27;6.07;;;28.50;99.90;;;;;;5011858;28;20029;-55
2022/08/08 11:47:32;;;;;;;11.23;5.70;;;28.50;99.90;;;;;;5011801;28;20390;-55
2022/08/08 11:50:18;;;;;;;19.92;6.25;;;28.50;99.90;;;;;;5012029;28;20045;-55
2022/08/08 11:52:45;;;;;;;14.20;5.25;;;28.50;99.90;;;;;;4989083;28;20560;-56
2022/08/08 11:55:27;;;;;;;14.05;6.30;;;28.50;99.90;;;;;;5011668;28;20072;-55
2022/08/08 11:58:08;;;;;;;15.75;6.30;;;28.60;99.90;;;;;;5011827;28;20076;-55
2022/08/08 12:00:44;;;;;;;13.32;4.70;;;28.60;99.90;;;;;;5011440;28;20414;-55
2022/08/08 12:03:22;;;;;;;15.82;6.55;;;28.60;99.90;;;;;;5011474;28;20038;-56
2022/08/08 12:05:48;;;;;;;11.77;5.47;;;28.60;99.90;;;;;;5011489;28;20030;-55
2022/08/08 12:08:15;;;;;;;13.35;6.72;;;28.60;99.90;;;;;;5011604;28;20049;-55
2022/08/08 12:10:51;;;;;;;12.05;5.35;;;28.60;99.90;;;;;;4999077;28;20023;-55
2022/08/08 12:13:24;;;;;;;13.25;5.60;;;28.70;99.90;;;;;;5010420;28;20390;-55
2022/08/08 12:15:51;;;;;;;10.65;5.47;;;28.70;99.90;;;;;;5011601;28;20109;-56
2022/08/08 12:18:20;;;;;;;12.27;6.05;;;28.80;99.90;;;;;;5009599;28;20061;-55
2022/08/08 12:20:46;;;;;;;15.45;6.20;;;28.80;99.90;;;;;;4999817;28;20084;-55
2022/08/08 12:23:12;;;;;;;11.77;6.75;;;28.90;99.90;;;;;;5011088;28;20509;-55
2022/08/08 12:25:38;;;;;;;10.35;5.28;;;28.90;99.90;;;;;;5011317;28;20379;-55
2022/08/08 12:28:13;;;;;;;9.80;4.88;;;28.90;99.90;;;;;;5011275;28;20049;-55
2022/08/08 12:30:40;;;;;;;9.65;5.53;;;28.90;99.90;;;;;;5011107;28;20508;-55
2022/08/08 12:33:24;;;;;;;17.60;6.53;;;28.90;99.90;;;;;;5011288;28;20155;-56
2022/08/08 12:35:50;;;;;;;11.75;5.93;;;28.90;99.90;;;;;;5011485;28;20026;-55
2022/08/08 12:38:17;;;;;;;11.43;5.33;;;29.00;99.90;;;;;;5011145;28;20116;-56
2022/08/08 12:40:45;;;;;;;14.45;6.07;;;29.00;99.90;;;;;;4993414;28;20431;-55
2022/08/08 12:43:12;;;;;;;13.57;5.75;;;29.10;99.90;;;;;;5010930;28;20041;-55
2022/08/08 12:45:41;;;;;;;17.27;7.80;;;29.10;99.90;;;;;;5011084;28;20364;-55
2022/08/08 12:48:20;;;;;;;8.52;5.40;;;29.20;99.90;;;;;;5011235;28;20026;-55
2022/08/08 12:50:54;;;;;;;13.00;5.10;;;29.20;99.90;;;;;;4993516;28;20029;-55
2022/08/08 12:53:21;;;;;;;13.55;5.50;;;29.20;99.90;;;;;;5011209;28;20467;-56
2022/08/08 12:56:05;;;;;;;7.82;4.25;;;29.20;99.90;;;;;;5011069;28;20018;-56
2022/08/08 12:58:46;;;;;;;20.25;5.57;;;29.20;99.90;;;;;;5011000;28;20450;-55
2022/08/08 13:01:12;;;;;;;7.57;4.35;;;29.30;99.90;;;;;;5010801;28;20081;-56
2022/08/08 13:03:49;;;;;;;7.93;5.18;;;29.30;99.90;;;;;;5011005;28;20140;-55
2022/08/08 13:06:18;;;;;;;9.93;5.10;;;29.40;99.90;;;;;;5011033;28;20427;-56
2022/08/08 13:08:47;;;;;;;12.00;4.80;;;29.40;99.90;;;;;;5010895;28;20030;-56
2022/08/08 13:11:40;;;;;;;8.50;4.43;;;29.50;99.90;;;;;;4995179;28;20026;-56
2022/08/08 13:14:14;;;;;;;8.57;4.35;;;29.50;99.90;;;;;;5007554;28;20037;-55
2022/08/08 13:16:41;;;;;;;11.07;4.82;;;29.50;99.90;;;;;;5010673;28;20441;-55